sim
Sign-in with your pilot id or email,
or register
Callsign
Passwort

Schedule Details

Flight Number: EWG1782 (2)
Departure: Munich Airport (EDDM) at 05:55
Arrival: Palma de Mallorca Airport (LEPA) at 08:10
Route: Eurowings Passenger Schedule. Enter filed route here before submitting Pirep.

Weather Information
Getting current METAR information for EDDM 281050Z 26004KT 210V310 9999 FEW007 09/07 Q1011 NOSIG
Getting current METAR information for LEPA 281030Z 32007KT 250V020 9999 FEW040 22/10 Q1015 NOSIG

Schedule Frequency

Route Map